ADDS METAR Data INFO
IDs: Format: Raw Decoded Include TAF

Data at: 1245 UTC 19 Oct 2017

KHZD 191235Z AUTO 00000KT 10SM CLR 07/07 A3026 RMK A01
KHZD 191215Z AUTO 00000KT 10SM CLR 06/06 A3025 RMK A01
KHZD 191155Z AUTO 00000KT 10SM CLR 07/07 A3024 RMK A01
KHZD 191135Z AUTO 00000KT 10SM CLR 07/07 A3024 RMK A01
KHZD 191115Z AUTO 00000KT 10SM CLR 07/06 A3024 RMK A01
KHZD 191055Z AUTO 13003KT 10SM CLR 07/06 A3024 RMK A01
KHZD 191035Z AUTO 00000KT 10SM CLR 07/07 A3023 RMK A01
KHZD 191015Z AUTO 00000KT 9SM CLR 06/06 A3023 RMK A01
KHZD 190955Z AUTO 00000KT 10SM CLR 07/07 A3022 RMK A01
KHZD 190935Z AUTO 00000KT 10SM CLR 07/06 A3022 RMK A01
KHZD 190915Z AUTO 00000KT 10SM CLR 07/06 A3022 RMK A01
KHZD 190855Z AUTO 00000KT 10SM CLR 07/07 A3022 RMK A01
KHZD 190835Z AUTO 00000KT 10SM CLR 08/07 A3021 RMK A01
KHZD 190815Z AUTO 17003KT 10SM CLR 08/07 A3020 RMK A01
KHZD 190755Z AUTO 00000KT 10SM CLR 08/07 A3021 RMK A01
KHZD 190735Z AUTO 00000KT 10SM CLR 09/08 A3021 RMK A01
KHZD 190715Z AUTO 00000KT 10SM CLR 09/08 A3021 RMK A01
KHZD 190655Z AUTO 00000KT 10SM CLR 09/07 A3020 RMK A01
KHZD 190635Z AUTO 00000KT 10SM CLR 09/08 A3020 RMK A01
KHZD 190615Z AUTO 00000KT 10SM CLR 08/08 A3020 RMK A01
KHZD 190555Z AUTO 00000KT 10SM CLR 08/08 A3020 RMK A01
KHZD 190535Z AUTO 00000KT 10SM CLR 08/08 A3021 RMK A01
KHZD 190515Z AUTO 00000KT 10SM CLR 08/07 A3020 RMK A01
KHZD 190455Z AUTO 00000KT 10SM CLR 09/08 A3021 RMK A01
KHZD 190435Z AUTO 00000KT 10SM CLR 09/08 A3021 RMK A01
KHZD 190415Z AUTO 00000KT 10SM CLR 10/09 A3021 RMK A01
KHZD 190355Z AUTO 00000KT 10SM CLR 10/08 A3020 RMK A01
KHZD 190335Z AUTO 00000KT 10SM FEW026 12/09 A3020 RMK A01
KHZD 190315Z AUTO 00000KT 10SM SCT025 11/08 A3020 RMK A01
KHZD 190255Z AUTO 00000KT 10SM CLR 11/09 A3020 RMK A01
KHZD 190235Z AUTO 00000KT 10SM CLR 11/09 A3021 RMK A01
KHZD 190215Z AUTO 00000KT 10SM FEW024 11/09 A3020 RMK A01
KHZD 190155Z AUTO 00000KT 10SM CLR 11/09 A3020 RMK A01
KHZD 190135Z AUTO 00000KT 10SM CLR 12/09 A3020 RMK A01
KHZD 190115Z AUTO 00000KT 10SM CLR 12/09 A3020 RMK A01
KHZD 190055Z AUTO 00000KT 10SM CLR 13/09 A3020 RMK A01
KHZD 190035Z AUTO 00000KT 10SM CLR 13/09 A3020 RMK A01
KHZD 190015Z AUTO 00000KT 10SM CLR 14/09 A3020 RMK A01
KHZD 182355Z AUTO 00000KT 10SM CLR 15/09 A3019 RMK A01
KHZD 182335Z AUTO 00000KT 10SM CLR 16/09 A3019 RMK A01
KHZD 182315Z AUTO 00000KT 10SM CLR 18/09 A3019 RMK A01
KHZD 182255Z AUTO 15004KT 10SM CLR 19/09 A3019 RMK A01
KHZD 182235Z AUTO 16005KT 10SM CLR 21/09 A3019 RMK A01
KHZD 182215Z AUTO 17005KT 10SM CLR 21/09 A3019 RMK A01
KHZD 182155Z AUTO 15006KT 10SM CLR 22/08 A3019 RMK A01
KHZD 182135Z AUTO 19006KT 10SM CLR 22/08 A3019 RMK A01
KHZD 182115Z AUTO 17007KT 140V200 10SM CLR 22/08 A3019 RMK A01
KHZD 182055Z AUTO 17005KT 10SM CLR 22/08 A3019 RMK A01
KHZD 182035Z AUTO 15006KT 10SM CLR 22/08 A3020 RMK A01
KHZD 182015Z AUTO 21007KT 10SM CLR 22/08 A3020 RMK A01
KHZD 181955Z AUTO 22008KT 10SM CLR 22/08 A3021 RMK A01
KHZD 181935Z AUTO 16007KT 10SM CLR 22/08 A3021 RMK A01
KHZD 181915Z AUTO 18006KT 10SM CLR 22/09 A3021 RMK A01
KHZD 181855Z AUTO 20008KT 10SM CLR 21/08 A3022 RMK A01
KHZD 181835Z AUTO 20009KT 10SM CLR 21/08 A3023 RMK A01
KHZD 181815Z AUTO 22007KT 10SM CLR 21/08 A3025 RMK A01
KHZD 181755Z AUTO 17009KT 140V200 10SM CLR 21/09 A3026 RMK A01
KHZD 181735Z AUTO 20009KT 160V240 10SM CLR 20/08 A3027 RMK A01
KHZD 181715Z AUTO 17008KT 10SM CLR 20/09 A3027 RMK A01
KHZD 181655Z AUTO 23010KT 10SM CLR 20/09 A3028 RMK A01
KHZD 181635Z AUTO 21011G17KT 10SM CLR 20/09 A3029 RMK A01
KHZD 181615Z AUTO 21008G13KT 10SM CLR 19/09 A3030 RMK A01
KHZD 181555Z AUTO 21008KT 10SM CLR 19/10 A3030 RMK A01
KHZD 181535Z AUTO 20007KT 150V220 10SM CLR 18/10 A3030 RMK A01
KHZD 181515Z AUTO 19006KT 10SM CLR 17/10 A3030 RMK A01
KHZD 181455Z AUTO 18008KT 10SM CLR 16/10 A3030 RMK A01
KHZD 181435Z AUTO 18006KT 10SM CLR 15/10 A3030 RMK A01
KHZD 181415Z AUTO 17005KT 10SM CLR 13/10 A3029 RMK A01
KHZD 181355Z AUTO 15004KT 10SM CLR 12/09 A3029 RMK A01
KHZD 181335Z AUTO 15005KT 10SM CLR 10/08 A3029 RMK A01
KHZD 181315Z AUTO 15004KT 10SM CLR 09/08 A3028 RMK A01
KHZD 181255Z AUTO 00000KT 10SM CLR 08/07 A3027 RMK A01
KHZD 181235Z AUTO 00000KT 10SM CLR 06/06 A3027 RMK A01
KHZD 181215Z AUTO 00000KT 10SM CLR 06/05 A3026 RMK A01
KHZD 181155Z AUTO 00000KT 10SM CLR 05/05 A3026 RMK A01
KHZD 181135Z AUTO 00000KT 10SM CLR 05/05 A3026 RMK A01
KHZD 181115Z AUTO 00000KT 10SM CLR 05/05 A3026 RMK A01
KHZD 181055Z AUTO 00000KT 10SM CLR 05/05 A3026 RMK A01
KHZD 181035Z AUTO 00000KT 10SM CLR 05/05 A3025 RMK A01
KHZD 181015Z AUTO 00000KT 10SM CLR 05/05 A3025 RMK A01
KHZD 180955Z AUTO 00000KT 10SM CLR 06/05 A3025 RMK A01
KHZD 180935Z AUTO 00000KT 10SM CLR 05/05 A3024 RMK A01
KHZD 180915Z AUTO 00000KT 10SM CLR 06/06 A3024 RMK A01
KHZD 180855Z AUTO 00000KT 10SM CLR 07/06 A3024 RMK A01
KHZD 180835Z AUTO 00000KT 10SM CLR 07/06 A3023 RMK A01
KHZD 180815Z AUTO 00000KT 10SM CLR 06/06 A3023 RMK A01
KHZD 180755Z AUTO 00000KT 10SM CLR 07/06 A3023 RMK A01
KHZD 180735Z AUTO 00000KT 10SM CLR 07/06 A3023 RMK A01
KHZD 180715Z AUTO 00000KT 10SM CLR 07/07 A3023 RMK A01
KHZD 180655Z AUTO 00000KT 10SM CLR 07/07 A3023 RMK A01
KHZD 180635Z AUTO 00000KT 10SM CLR 07/06 A3023 RMK A01
KHZD 180615Z AUTO 00000KT 10SM CLR 07/07 A3023 RMK A01
KHZD 180555Z AUTO 00000KT 10SM CLR 07/06 A3024 RMK A01
KHZD 180535Z AUTO 00000KT 10SM CLR 06/06 A3024 RMK A01
KHZD 180515Z AUTO 00000KT 10SM CLR 07/07 A3024 RMK A01
KHZD 180455Z AUTO 00000KT 10SM CLR 07/06 A3024 RMK A01
KHZD 180435Z AUTO 00000KT 10SM CLR 07/07 A3024 RMK A01
KHZD 180415Z AUTO 00000KT 10SM CLR 08/07 A3024 RMK A01
KHZD 180355Z AUTO 00000KT 10SM CLR 08/07 A3025 RMK A01
KHZD 180335Z AUTO 00000KT 10SM CLR 08/07 A3025 RMK A01
KHZD 180315Z AUTO 00000KT 10SM CLR 09/08 A3025 RMK A01
KHZD 180255Z AUTO 00000KT 10SM CLR 09/07 A3025 RMK A01
KHZD 180235Z AUTO 00000KT 10SM CLR 09/07 A3025 RMK A01
KHZD 180215Z AUTO 00000KT 10SM CLR 09/07 A3024 RMK A01
KHZD 180155Z AUTO 00000KT 10SM CLR 10/08 A3024 RMK A01
KHZD 180135Z AUTO 00000KT 10SM CLR 10/07 A3024 RMK A01
KHZD 180115Z AUTO 00000KT 10SM CLR 11/08 A3024 RMK A01
KHZD 180055Z AUTO 00000KT 10SM CLR 11/07 A3024 RMK A01